Terminal Aerodrome Forecast
Issued by NWS Paducah, KY

Home | Current Version | Previous Version | Text Only | Print | Product List | Glossary On
Versions: 1 2 3 4 5 6 7 8 9 10 11 12 13 14 15 16 17 18 19 20 21 22 23 24
000
FTUS43 KPAH 281641 AAD
TAFEVV
TAF AMD
KEVV 281641Z 2817/2912 14005KT P6SM SCT015 BKN030
      TEMPO 2817/2821 BKN015
     FM290100 VRB02KT P6SM SCT035 BKN250=

USA.gov is the U.S. government's official web portal to all federal, state and local government web resources and services.